Candler, North Carolina
Current Conditions -  °F | °C
As of 11:54 AM on Thursday 30 Oct 2014 (Local Time) from KAVL Reporting Station
Clear Clear  
Wind Chill: 56°   Ceiling: Unl
Heat Index: 56°   Visibility: 10mi
Dew Point: 35°   Wind: 7mph
Humidity: 45%   Direction: NA
Pressure: 30.09"   Gusts: NA
Location:  35.54°N, 82.65°W
Report Text: KAVL 301554Z VRB06KT 10SM CLR 13/02 A3009 RMK AO2 SLP180 T01330017
Loading
Personal Weather Stations






























Interactive Weather Map
Tropical Storm Tracking
New forecast layout! Learn more

10-Day Weather Forecast

Advertisements
Track Severe Weather on mobile